Time;durP1;ratioP1;P1;durP2;ratioP2;P2;SDS_P1;SDS_P2;PMS_P1;PMS_P2;Temp;Humidity;BMP_temperature;BMP_pressure;BME280_temperature;BME280_humidity;BME280_pressure;Samples;Min_cycle;Max_cycle;Signal;HPM_P1;HPM_P2
2023/12/31 00:02:25;;;;;;;6.95;4.60;;;;;;;8.74;83.93;98599.50;7285486;39;20236;31
2023/12/31 00:07:45;;;;;;;7.30;5.57;;;;;;;8.70;84.24;98600.84;7223540;40;20273;31
2023/12/31 00:13:02;;;;;;;16.40;12.40;;;;;;;8.63;84.44;98583.75;7248037;40;20257;31
2023/12/31 00:18:39;;;;;;;9.50;6.83;;;;;;;8.58;84.02;98569.97;7280268;39;20264;31
2023/12/31 00:23:56;;;;;;;7.23;5.20;;;;;;;8.58;83.82;98562.75;7338931;39;20441;31
2023/12/31 00:29:31;;;;;;;8.07;4.43;;;;;;;8.47;84.18;98546.13;7282176;39;20264;31
2023/12/31 00:35:04;;;;;;;8.23;4.77;;;;;;;8.39;84.66;98533.56;7297025;39;20269;31
2023/12/31 00:40:24;;;;;;;9.45;4.90;;;;;;;8.36;84.06;98533.06;7226435;40;20252;31
2023/12/31 00:45:59;;;;;;;8.60;4.97;;;;;;;8.33;85.18;98533.41;7230132;40;20394;31
2023/12/31 00:51:35;;;;;;;7.60;4.80;;;;;;;8.32;85.08;98518.31;7197368;40;20266;31
2023/12/31 00:57:10;;;;;;;5.65;4.15;;;;;;;8.37;84.15;98519.47;7233903;40;20272;31
2023/12/31 01:02:30;;;;;;;7.43;4.77;;;;;;;8.29;84.04;98503.38;7309749;39;20413;31
2023/12/31 01:13:08;;;;;;;5.50;3.60;;;;;;;7.85;83.17;98502.00;7320760;39;21260;31
2023/12/31 01:18:43;;;;;;;6.47;4.23;;;;;;;7.88;83.39;98491.78;7249657;40;20232;31
2023/12/31 01:24:04;;;;;;;4.43;3.73;;;;;;;7.67;81.79;98478.03;7212902;40;20246;31
2023/12/31 01:29:52;;;;;;;5.17;3.70;;;;;;;7.17;82.94;98486.09;7233913;40;20305;31
2023/12/31 01:35:27;;;;;;;6.80;3.67;;;;;;;7.24;83.25;98474.56;7195561;40;20325;31
2023/12/31 01:46:07;;;;;;;5.30;4.20;;;;;;;6.80;83.03;98457.03;7249472;39;20708;31
2023/12/31 01:51:55;;;;;;;6.70;3.80;;;;;;;6.79;82.81;98447.31;7220523;40;20254;31
2023/12/31 01:57:30;;;;;;;6.40;4.20;;;;;;;6.61;83.41;98447.38;7249646;39;20324;31
2023/12/31 02:08:05;;;;;;;4.70;3.90;;;;;;;6.85;83.46;98430.56;7290707;39;21516;31
2023/12/31 02:18:41;;;;;;;6.10;4.50;;;;;;;6.77;82.25;98398.41;7254375;40;21710;31
2023/12/31 02:24:17;;;;;;;8.57;5.00;;;;;;;6.59;82.45;98385.13;7258498;40;20241;31
2023/12/31 02:29:53;;;;;;;7.30;4.43;;;;;;;6.54;82.01;98376.72;7300818;39;20272;31
2023/12/31 02:35:28;;;;;;;7.65;4.50;;;;;;;6.35;81.74;98374.31;7296942;39;20267;31
2023/12/31 02:40:48;;;;;;;6.50;4.30;;;;;;;6.30;83.64;98366.78;7242969;40;20372;31
2023/12/31 02:46:25;;;;;;;7.80;4.55;;;;;;;6.21;82.15;98373.09;7227080;40;20234;31
2023/12/31 02:52:00;;;;;;;6.27;4.33;;;;;;;6.08;83.62;98356.63;7207215;40;20223;31
2023/12/31 02:57:35;;;;;;;8.65;5.00;;;;;;;6.23;84.34;98338.16;7232424;40;20247;31
2023/12/31 03:03:11;;;;;;;6.50;4.17;;;;;;;6.29;83.25;98316.94;7260806;40;20406;31
2023/12/31 03:13:48;;;;;;;8.00;5.03;;;;;;;6.08;83.46;98305.81;7264588;40;20260;31
2023/12/31 03:19:24;;;;;;;8.80;5.40;;;;;;;6.08;83.95;98303.13;7197172;40;20274;31
2023/12/31 03:24:59;;;;;;;8.47;5.47;;;;;;;5.84;83.77;98284.25;7282125;39;20377;31
2023/12/31 03:30:19;;;;;;;8.97;4.87;;;;;;;5.84;84.93;98276.22;7280698;40;20241;31
2023/12/31 03:35:53;;;;;;;6.80;5.10;;;;;;;5.78;84.50;98269.69;7269478;39;20351;31
2023/12/31 03:46:29;;;;;;;8.40;5.70;;;;;;;5.82;85.26;98270.22;7312112;39;21343;31
2023/12/31 03:52:06;;;;;;;7.73;5.47;;;;;;;5.86;84.62;98253.72;7306467;39;20357;31
2023/12/31 03:57:25;;;;;;;6.77;5.10;;;;;;;5.92;84.43;98252.25;7284280;40;20241;31
2023/12/31 04:03:01;;;;;;;7.70;5.67;;;;;;;6.05;85.01;98236.59;7319105;39;20237;31
2023/12/31 04:08:37;;;;;;;9.55;6.15;;;;;;;5.95;84.38;98237.72;7274329;39;20272;31
2023/12/31 04:13:57;;;;;;;8.17;6.10;;;;;;;5.94;84.96;98236.88;7312764;39;20377;31
2023/12/31 04:19:33;;;;;;;8.37;6.30;;;;;;;5.94;85.33;98217.31;7255029;40;20260;31
2023/12/31 04:25:09;;;;;;;9.60;7.10;;;;;;;5.79;86.06;98203.69;7214910;40;20427;31
2023/12/31 04:30:29;;;;;;;10.10;7.60;;;;;;;5.84;86.59;98204.03;7266996;40;20281;31
2023/12/31 04:41:10;;;;;;;10.20;7.85;;;;;;;6.03;86.21;98174.38;7287372;40;20396;31
2023/12/31 04:46:45;;;;;;;10.70;7.60;;;;;;;6.14;87.37;98155.34;7277570;39;20257;31
2023/12/31 04:52:06;;;;;;;8.00;6.70;;;;;;;6.33;86.78;98147.00;7275476;40;20238;31
2023/12/31 04:57:42;;;;;;;8.85;6.85;;;;;;;6.36;86.25;98142.34;7258402;40;20383;31
2023/12/31 05:03:03;;;;;;;11.80;7.65;;;;;;;6.38;86.56;98141.16;7236301;40;20398;31
2023/12/31 05:08:21;;;;;;;9.80;6.70;;;;;;;6.35;86.56;98141.50;7285372;39;21546;31
2023/12/31 05:19:01;;;;;;;9.54;6.76;;;;;;;6.38;86.95;98126.94;7371178;39;20243;31
2023/12/31 05:29:38;;;;;;;9.40;7.35;;;;;;;6.47;86.62;98133.97;7320547;39;21280;31
2023/12/31 05:40:15;;;;;;;9.07;7.37;;;;;;;6.61;87.23;98127.97;7335877;39;21341;31
2023/12/31 05:45:46;;;;;;;10.55;7.60;;;;;;;6.57;87.16;98131.97;7277858;40;20250;31
2023/12/31 05:51:18;;;;;;;8.35;7.45;;;;;;;6.62;87.41;98127.81;7244953;40;20366;31
2023/12/31 05:56:50;;;;;;;11.20;8.63;;;;;;;6.61;87.00;98115.41;7277377;40;20223;31
2023/12/31 06:02:11;;;;;;;10.03;8.40;;;;;;;6.66;87.00;98122.94;7234592;39;20253;31
2023/12/31 06:07:45;;;;;;;13.10;9.70;;;;;;;6.65;87.88;98111.37;7257718;40;20253;31
2023/12/31 06:13:21;;;;;;;11.60;9.35;;;;;;;6.69;87.13;98107.38;7298017;39;20253;31
2023/12/31 06:18:56;;;;;;;11.95;9.45;;;;;;;6.71;87.57;98109.88;7276032;40;20484;31
2023/12/31 06:24:31;;;;;;;10.80;8.55;;;;;;;6.66;88.35;98101.53;7205500;40;20770;31
2023/12/31 06:30:07;;;;;;;10.33;8.43;;;;;;;6.64;88.25;98082.94;7227167;40;20258;31
2023/12/31 06:35:39;;;;;;;9.50;7.60;;;;;;;6.70;88.74;98086.78;7024920;40;20246;31
2023/12/31 06:41:11;;;;;;;11.35;7.60;;;;;;;6.67;88.79;98085.28;7237201;40;20350;31
2023/12/31 06:46:48;;;;;;;10.47;7.93;;;;;;;6.58;89.28;98075.56;7297247;39;20400;31
2023/12/31 06:52:22;;;;;;;11.10;7.43;;;;;;;6.60;89.23;98081.59;7289001;39;20241;31
2023/12/31 06:57:58;;;;;;;9.30;7.45;;;;;;;6.58;89.79;98066.75;7240407;40;20352;31
2023/12/31 07:03:34;;;;;;;7.45;6.30;;;;;;;6.54;89.41;98065.41;7235880;40;20383;31
2023/12/31 07:08:54;;;;;;;7.70;5.90;;;;;;;6.55;89.38;98075.09;7227086;40;20394;31
2023/12/31 07:14:15;;;;;;;7.70;6.10;;;;;;;6.47;89.87;98059.03;7256671;40;20370;31
2023/12/31 07:19:52;;;;;;;6.80;5.87;;;;;;;6.45;89.94;98061.88;7236613;40;20258;31
2023/12/31 07:25:28;;;;;;;7.53;6.10;;;;;;;6.51;90.19;98058.53;7246878;39;20344;31
2023/12/31 07:31:02;;;;;;;23.35;11.80;;;;;;;6.53;89.34;98051.19;7239354;40;20246;31
2023/12/31 07:36:38;;;;;;;8.20;6.30;;;;;;;6.50;90.41;98042.63;7197835;40;20397;31
2023/12/31 07:41:58;;;;;;;8.13;6.10;;;;;;;6.45;90.43;98027.06;7196042;40;20278;31
2023/12/31 07:52:37;;;;;;;8.98;7.20;;;;;;;6.46;89.84;98009.19;7252478;40;20255;31
2023/12/31 07:57:57;;;;;;;8.65;7.70;;;;;;;6.59;89.93;98012.16;7280242;39;20264;31
2023/12/31 08:03:18;;;;;;;8.65;6.45;;;;;;;6.66;89.73;98011.34;7282021;39;20844;31
2023/12/31 08:08:54;;;;;;;7.15;5.70;;;;;;;6.64;89.58;98001.78;7278488;39;20338;31
2023/12/31 08:14:29;;;;;;;8.97;6.40;;;;;;;6.64;89.63;97999.94;7208723;40;20246;31
2023/12/31 08:19:50;;;;;;;8.20;5.70;;;;;;;6.71;89.99;97982.19;7260328;40;20332;31
2023/12/31 08:25:27;;;;;;;8.33;5.97;;;;;;;6.82;88.87;97996.22;7274608;39;20268;31
2023/12/31 08:30:47;;;;;;;6.35;5.07;;;;;;;6.90;89.22;97985.47;7298768;39;20253;31
2023/12/31 08:36:23;;;;;;;5.10;4.60;;;;;;;6.95;88.90;97983.09;7275726;39;20268;31
2023/12/31 08:41:59;;;;;;;7.35;5.50;;;;;;;7.04;88.00;97976.72;7239184;40;20296;31
2023/12/31 08:47:19;;;;;;;5.30;4.70;;;;;;;7.15;88.91;97979.03;7226457;40;20432;31
2023/12/31 08:52:54;;;;;;;5.23;4.50;;;;;;;7.20;88.33;97963.22;7256276;40;20393;31
2023/12/31 08:58:30;;;;;;;6.50;4.80;;;;;;;7.32;87.54;97959.16;7305647;39;20268;31
2023/12/31 09:04:03;;;;;;;5.25;4.25;;;;;;;7.44;86.95;97952.38;7297351;39;20319;31
2023/12/31 09:09:22;;;;;;;5.40;4.67;;;;;;;7.53;87.47;97942.44;7247738;40;21306;31
2023/12/31 09:14:57;;;;;;;8.57;5.47;;;;;;;7.54;86.73;97949.47;7276812;39;20342;31
2023/12/31 09:20:32;;;;;;;7.95;5.60;;;;;;;7.59;86.93;97950.56;7238025;40;20261;31
2023/12/31 09:25:54;;;;;;;14.57;10.00;;;;;;;7.66;86.39;97950.72;7221922;40;20242;31
2023/12/31 09:31:31;;;;;;;22.20;14.73;;;;;;;7.72;86.07;97933.91;7252042;40;20355;31
2023/12/31 09:37:07;;;;;;;23.07;14.67;;;;;;;7.83;85.74;97930.78;7256821;40;20248;31
2023/12/31 09:42:44;;;;;;;15.47;10.67;;;;;;;7.90;85.38;97953.19;7264312;39;20238;31
2023/12/31 09:48:22;;;;;;;12.75;8.90;;;;;;;7.99;84.89;97957.47;7206265;40;20262;31
2023/12/31 09:53:58;;;;;;;12.40;9.50;;;;;;;8.05;85.30;97961.28;7190735;40;20494;31
2023/12/31 09:59:33;;;;;;;9.10;5.90;;;;;;;8.12;86.00;97965.75;7187142;40;20266;31
2023/12/31 10:05:10;;;;;;;6.40;5.25;;;;;;;8.20;85.87;97962.19;7155073;40;20346;31
2023/12/31 10:10:45;;;;;;;4.20;3.50;;;;;;;8.29;86.41;97965.63;7177265;40;20396;31
2023/12/31 10:21:26;;;;;;;4.23;2.73;;;;;;;8.60;88.33;97974.37;7290723;39;20735;31
2023/12/31 10:26:46;;;;;;;5.27;4.03;;;;;;;8.66;89.17;97987.06;7325944;39;20287;31
2023/12/31 10:32:22;;;;;;;5.00;2.43;;;;;;;8.64;90.82;97973.00;7297858;39;20291;31
2023/12/31 10:37:58;;;;;;;3.33;2.30;;;;;;;8.60;91.78;97967.13;7258511;40;20283;31
2023/12/31 10:43:33;;;;;;;3.60;1.87;;;;;;;8.64;91.97;97964.94;7225644;40;20246;31
2023/12/31 10:49:10;;;;;;;2.50;2.10;;;;;;;8.71;92.94;97981.97;7187974;40;20242;31
2023/12/31 10:54:48;;;;;;;2.10;1.90;;;;;;;8.76;93.03;97978.75;7206618;40;20266;31
2023/12/31 11:00:25;;;;;;;3.95;2.65;;;;;;;8.78;93.82;97966.78;7192362;40;20234;31
2023/12/31 11:05:45;;;;;;;1.90;1.80;;;;;;;8.86;93.29;97961.31;7179414;40;20258;31
2023/12/31 11:11:21;;;;;;;2.10;1.90;;;;;;;8.85;93.24;97943.53;7211382;40;20354;31
2023/12/31 11:16:55;;;;;;;3.00;2.20;;;;;;;8.88;91.41;97936.94;7203039;40;20342;31
2023/12/31 11:22:33;;;;;;;2.23;1.50;;;;;;;8.90;90.42;97932.22;7208961;40;20301;31
2023/12/31 11:28:07;;;;;;;2.43;1.30;;;;;;;8.89;89.59;97958.25;7188819;40;20328;31
2023/12/31 11:33:43;;;;;;;1.77;1.30;;;;;;;8.88;89.04;97953.06;7234781;40;20339;31
2023/12/31 11:39:19;;;;;;;2.03;1.43;;;;;;;8.86;88.53;97966.66;7242689;40;20245;31
2023/12/31 11:44:58;;;;;;;2.23;1.10;;;;;;;8.85;88.15;97970.41;7230634;40;20239;31
2023/12/31 11:50:35;;;;;;;2.23;1.10;;;;;;;8.78;87.31;98007.06;7238793;40;20238;31
2023/12/31 11:56:07;;;;;;;2.25;1.70;;;;;;;8.76;87.63;98009.13;7255746;40;20238;31
2023/12/31 12:01:44;;;;;;;2.50;1.60;;;;;;;8.75;87.51;98003.94;7254289;39;20234;31
2023/12/31 12:07:20;;;;;;;2.47;1.60;;;;;;;8.71;87.62;98003.47;7220458;40;20269;31
2023/12/31 12:12:57;;;;;;;1.90;1.30;;;;;;;8.72;87.41;98007.81;7207425;40;20246;31
2023/12/31 12:18:34;;;;;;;3.17;1.90;;;;;;;8.72;87.34;98023.94;7199898;40;20392;31
2023/12/31 12:24:09;;;;;;;3.50;1.60;;;;;;;8.77;87.50;98018.03;7223237;40;20410;31
2023/12/31 12:29:44;;;;;;;3.13;1.60;;;;;;;8.76;87.21;98025.25;7248621;40;20383;31
2023/12/31 12:35:22;;;;;;;4.00;1.50;;;;;;;8.75;87.31;98045.06;7245033;40;20259;31
2023/12/31 12:40:56;;;;;;;3.33;2.07;;;;;;;8.74;87.72;98042.53;7295178;39;20294;31
2023/12/31 12:46:14;;;;;;;4.27;2.50;;;;;;;8.74;87.58;98046.06;7112654;39;20295;31
2023/12/31 12:56:54;;;;;;;5.83;3.40;;;;;;;8.67;88.71;98053.19;7306043;39;20280;31
2023/12/31 13:07:19;;;;;;;2.30;1.70;;;;;;;8.62;89.09;98063.66;7325195;39;21405;31
2023/12/31 13:17:59;;;;;;;58.75;36.90;;;;;;;8.58;90.19;98081.16;7386361;39;20732;31
2023/12/31 13:23:34;;;;;;;16.13;10.87;;;;;;;8.55;89.84;98070.78;7321308;39;20421;31
2023/12/31 13:29:09;;;;;;;4.00;3.00;;;;;;;8.52;89.71;98066.59;7301411;40;20255;31
2023/12/31 13:34:45;;;;;;;4.35;2.15;;;;;;;8.47;89.77;98050.19;7295096;39;20269;31
2023/12/31 13:40:08;;;;;;;2.20;1.90;;;;;;;8.46;89.32;98056.59;7298952;39;20377;31
2023/12/31 13:45:28;;;;;;;3.20;1.75;;;;;;;8.45;89.86;98048.72;7287829;39;20240;31
2023/12/31 13:51:04;;;;;;;3.05;2.40;;;;;;;8.40;89.61;98051.94;7312350;39;20377;31
2023/12/31 13:56:23;;;;;;;5.30;3.67;;;;;;;8.45;89.47;98060.28;7288523;39;20273;31
2023/12/31 14:01:58;;;;;;;10.10;6.10;;;;;;;8.43;89.71;98061.47;7319084;39;20251;31
2023/12/31 14:12:37;;;;;;;2.33;2.07;;;;;;;8.36;88.76;98045.25;7344373;39;20733;31
2023/12/31 14:23:17;;;;;;;2.53;2.10;;;;;;;8.35;88.74;98035.53;7256836;40;20425;31
2023/12/31 14:33:55;;;;;;;3.05;1.80;;;;;;;8.29;88.27;98055.06;7259491;39;20264;31
2023/12/31 14:39:30;;;;;;;3.30;2.00;;;;;;;8.28;88.34;98063.25;7314961;39;20463;31
2023/12/31 14:50:10;;;;;;;1.90;1.20;;;;;;;8.26;87.43;98062.59;7276905;40;21386;31
2023/12/31 15:00:47;;;;;;;3.75;2.20;;;;;;;8.29;87.60;98086.41;7297943;39;21343;31
2023/12/31 15:06:22;;;;;;;3.33;2.40;;;;;;;8.20;86.62;98079.44;7298969;39;20383;31
2023/12/31 15:16:47;;;;;;;1.40;1.30;;;;;;;8.08;88.79;98108.50;7299832;39;20279;31
2023/12/31 15:27:24;;;;;;;2.10;1.50;;;;;;;7.89;89.62;98152.75;7273719;39;21298;31
2023/12/31 15:32:59;;;;;;;1.20;1.10;;;;;;;7.83;90.03;98145.38;7279969;39;20277;31
2023/12/31 15:43:37;;;;;;;1.30;1.10;;;;;;;7.64;89.66;98127.88;7314528;39;21487;31
2023/12/31 15:54:02;;;;;;;19.67;12.07;;;;;;;7.57;89.61;98126.91;7296276;39;20818;31
2023/12/31 15:59:37;;;;;;;9.27;6.87;;;;;;;7.52;89.59;98126.59;7299799;39;20295;31
2023/12/31 16:04:57;;;;;;;8.57;7.77;;;;;;;7.52;89.97;98129.25;7268449;39;20272;31
2023/12/31 16:15:35;;;;;;;2.00;1.77;;;;;;;7.39;89.48;98120.09;7277803;39;21447;31
2023/12/31 16:26:16;;;;;;;1.83;1.60;;;;;;;7.36;88.55;98155.28;7339949;39;20271;31
2023/12/31 16:36:56;;;;;;;3.55;2.60;;;;;;;7.29;87.98;98138.22;7321526;39;20287;31
2023/12/31 16:47:36;;;;;;;6.95;5.95;;;;;;;7.31;86.80;98120.13;7278644;40;20382;31
2023/12/31 16:58:15;;;;;;;3.35;2.60;;;;;;;7.28;86.94;98115.12;7332024;39;20283;31
2023/12/31 17:08:37;;;;;;;3.30;2.20;;;;;;;7.40;86.99;98105.69;7277591;39;21272;31
2023/12/31 17:19:18;;;;;;;19.30;12.30;;;;;;;7.40;87.43;98094.97;7309011;39;21297;31
2023/12/31 17:29:40;;;;;;;35.90;19.45;;;;;;;7.37;87.36;98111.41;7357524;39;21300;31
2023/12/31 17:35:15;;;;;;;14.37;11.53;;;;;;;7.32;86.63;98103.03;7315191;39;20267;31
2023/12/31 17:45:41;;;;;;;3.63;2.83;;;;;;;7.23;86.77;98118.31;7340284;39;20352;31
2023/12/31 17:51:18;;;;;;;4.83;2.73;;;;;;;7.17;87.89;98125.19;7312799;39;20247;31
2023/12/31 17:56:36;;;;;;;2.87;2.50;;;;;;;7.13;87.13;98133.75;7271055;39;20240;31
2023/12/31 18:01:56;;;;;;;3.65;2.35;;;;;;;7.09;86.51;98130.56;7281374;40;20257;31
2023/12/31 18:07:32;;;;;;;4.10;2.40;;;;;;;7.09;86.97;98125.22;7292902;39;20346;31
2023/12/31 18:13:07;;;;;;;31.60;18.20;;;;;;;7.12;87.54;98127.53;7287455;39;20245;31
2023/12/31 18:18:42;;;;;;;31.70;14.63;;;;;;;7.15;86.26;98121.84;7265126;40;20249;31
2023/12/31 18:24:16;;;;;;;5.15;3.10;;;;;;;7.21;85.36;98144.44;7236661;40;20237;31
2023/12/31 18:29:33;;;;;;;3.57;2.17;;;;;;;7.30;84.64;98161.34;7261739;40;20245;31
2023/12/31 18:34:54;;;;;;;11.30;6.30;;;;;;;7.37;85.10;98165.00;7268588;39;20256;31
2023/12/31 18:40:28;;;;;;;39.43;22.23;;;;;;;7.37;84.50;98159.66;7308817;39;20373;31
2023/12/31 18:45:49;;;;;;;34.90;19.30;;;;;;;7.33;85.80;98167.19;7301726;39;20236;31
2023/12/31 18:51:22;;;;;;;16.10;10.77;;;;;;;7.23;85.62;98174.59;7271199;39;20246;31
2023/12/31 18:56:56;;;;;;;22.90;17.30;;;;;;;7.14;86.06;98187.16;7276090;39;20339;31
2023/12/31 19:02:18;;;;;;;12.53;9.47;;;;;;;7.11;86.78;98187.50;7168562;40;20263;31
2023/12/31 19:07:52;;;;;;;16.00;10.30;;;;;;;7.12;86.50;98202.56;7161587;40;20317;31
2023/12/31 19:13:26;;;;;;;8.27;5.33;;;;;;;7.21;85.43;98198.88;7141088;40;21514;31
2023/12/31 19:18:47;;;;;;;13.20;9.33;;;;;;;7.32;85.68;98195.00;7253699;39;20263;31
2023/12/31 19:24:22;;;;;;;6.35;3.90;;;;;;;7.36;85.65;98211.59;7262498;40;20269;31
2023/12/31 19:29:56;;;;;;;6.50;2.90;;;;;;;7.33;85.46;98211.94;7237411;40;20386;31
2023/12/31 19:35:17;;;;;;;5.37;2.63;;;;;;;7.34;86.55;98217.09;7241203;40;20245;31
2023/12/31 19:40:34;;;;;;;5.65;2.90;;;;;;;7.25;86.67;98215.44;7270469;39;21281;31
2023/12/31 19:46:12;;;;;;;4.95;2.80;;;;;;;7.18;87.46;98233.22;7292219;39;20241;31
2023/12/31 19:51:47;;;;;;;6.83;3.87;;;;;;;7.24;86.68;98235.19;7306004;39;20306;31
2023/12/31 19:57:06;;;;;;;6.10;3.30;;;;;;;7.27;86.50;98234.03;7276002;40;20349;31
2023/12/31 20:02:43;;;;;;;7.80;3.43;;;;;;;7.30;85.20;98233.69;7273569;40;20257;31
2023/12/31 20:08:18;;;;;;;6.55;3.00;;;;;;;7.24;85.81;98232.53;7198304;40;20257;31
2023/12/31 20:13:53;;;;;;;4.45;1.95;;;;;;;7.18;87.53;98236.75;7196451;40;20403;31
2023/12/31 20:19:29;;;;;;;2.40;1.67;;;;;;;7.15;87.70;98234.38;7236492;39;20394;31
2023/12/31 20:29:50;;;;;;;3.40;1.93;;;;;;;7.17;87.70;98259.16;7216603;40;21340;31
2023/12/31 20:35:21;;;;;;;3.25;1.70;;;;;;;7.10;87.74;98260.03;7242148;40;20392;31
2023/12/31 20:40:38;;;;;;;3.00;1.70;;;;;;;7.16;88.30;98260.16;7049690;40;21324;31
2023/12/31 20:45:56;;;;;;;4.37;2.27;;;;;;;7.15;87.63;98255.81;7274782;39;20647;31
2023/12/31 20:51:33;;;;;;;4.30;2.00;;;;;;;7.10;88.29;98250.16;7277420;39;20275;31
2023/12/31 21:01:54;;;;;;;4.13;2.50;;;;;;;7.11;88.04;98251.78;7266148;39;21450;31
2023/12/31 21:12:35;;;;;;;3.97;2.13;;;;;;;7.10;87.96;98250.16;7301869;39;20279;31
2023/12/31 21:18:10;;;;;;;3.60;2.20;;;;;;;7.14;87.66;98235.41;7304008;39;20273;31
2023/12/31 21:23:30;;;;;;;4.60;1.85;;;;;;;7.21;87.57;98239.06;7278110;39;20316;31
2023/12/31 21:29:06;;;;;;;4.33;2.03;;;;;;;7.16;87.90;98228.00;7299359;39;20545;31
2023/12/31 21:34:26;;;;;;;4.90;2.50;;;;;;;7.19;87.41;98233.06;7261180;39;20263;31
2023/12/31 21:45:07;;;;;;;6.30;2.30;;;;;;;7.20;88.12;98236.53;7353761;39;20865;31
2023/12/31 21:50:42;;;;;;;4.10;1.83;;;;;;;7.23;87.97;98242.44;7271226;40;20256;31
2023/12/31 21:56:17;;;;;;;5.50;2.15;;;;;;;7.28;87.78;98239.25;7210532;40;20258;31
2023/12/31 22:01:51;;;;;;;6.70;2.20;;;;;;;7.30;86.99;98244.41;7178655;40;20243;31
2023/12/31 22:07:12;;;;;;;6.05;2.55;;;;;;;7.36;85.74;98246.44;7120741;40;20243;31
2023/12/31 22:12:32;;;;;;;9.63;3.57;;;;;;;7.34;87.16;98243.06;7137578;40;20347;31
2023/12/31 22:18:09;;;;;;;6.37;2.70;;;;;;;7.29;86.60;98232.00;7176437;40;20248;31
2023/12/31 22:23:44;;;;;;;1.80;1.20;;;;;;;7.31;86.30;98246.09;7231242;40;20295;31
2023/12/31 22:29:04;;;;;;;3.60;1.80;;;;;;;7.32;86.90;98255.81;7236583;40;20376;31
2023/12/31 22:34:41;;;;;;;4.55;2.00;;;;;;;7.30;87.28;98239.91;7205185;40;20442;31
2023/12/31 22:40:00;;;;;;;4.30;1.80;;;;;;;7.35;85.52;98252.78;7206779;40;20266;31
2023/12/31 22:45:36;;;;;;;24.10;12.60;;;;;;;7.37;86.12;98243.56;7225496;40;20288;31
2023/12/31 22:51:11;;;;;;;12.97;9.03;;;;;;;7.30;87.80;98241.72;7241782;40;20231;31
2023/12/31 22:56:31;;;;;;;15.10;8.67;;;;;;;7.31;86.69;98252.28;7250223;39;20338;31
2023/12/31 23:02:07;;;;;;;15.33;4.60;;;;;;;7.30;87.16;98249.78;7330272;39;20248;31
2023/12/31 23:07:41;;;;;;;23.70;12.63;;;;;;;7.32;86.46;98251.31;7274550;40;20328;31
2023/12/31 23:13:16;;;;;;;46.63;27.23;;;;;;;7.34;87.17;98257.31;7249313;40;20428;31
2023/12/31 23:18:52;;;;;;;46.65;21.75;;;;;;;7.40;86.98;98262.00;7319015;39;21476;31
2023/12/31 23:24:27;;;;;;;34.70;17.80;;;;;;;7.36;86.92;98268.72;7316568;39;20253;31
2023/12/31 23:29:47;;;;;;;15.45;7.35;;;;;;;7.41;86.51;98270.87;7220220;40;20351;31
2023/12/31 23:35:08;;;;;;;10.00;5.30;;;;;;;7.43;87.05;98271.53;7231385;40;20443;31
2023/12/31 23:40:47;;;;;;;11.27;4.00;;;;;;;7.41;87.04;98273.56;7248310;40;20260;31
2023/12/31 23:46:21;;;;;;;5.97;2.80;;;;;;;7.44;85.95;98276.75;7262605;40;20252;31
2023/12/31 23:51:56;;;;;;;6.45;2.80;;;;;;;7.46;86.53;98273.91;7256566;40;20241;31
2023/12/31 23:57:32;;;;;;;8.07;3.20;;;;;;;7.49;86.59;98271.72;7180760;40;20261;31
